sensor_id;sensor_type;location;lat;lon;timestamp;temperature;humidity
32139;DHT22;18644;48.700;9.210;2023-09-18T00:02:19;20.30;53.30
32139;DHT22;18644;48.700;9.210;2023-09-18T00:04:46;20.20;53.40
32139;DHT22;18644;48.700;9.210;2023-09-18T00:07:13;20.20;53.50
32139;DHT22;18644;48.700;9.210;2023-09-18T00:09:40;20.20;53.50
32139;DHT22;18644;48.700;9.210;2023-09-18T00:12:08;20.20;53.50
32139;DHT22;18644;48.700;9.210;2023-09-18T00:14:35;20.20;53.50
32139;DHT22;18644;48.700;9.210;2023-09-18T00:17:02;20.10;53.60
32139;DHT22;18644;48.700;9.210;2023-09-18T00:19:29;20.10;53.70
32139;DHT22;18644;48.700;9.210;2023-09-18T00:21:58;20.10;53.70
32139;DHT22;18644;48.700;9.210;2023-09-18T00:24:26;20.10;53.80
32139;DHT22;18644;48.700;9.210;2023-09-18T00:26:52;20.00;53.80
32139;DHT22;18644;48.700;9.210;2023-09-18T00:29:21;20.00;53.90
32139;DHT22;18644;48.700;9.210;2023-09-18T00:31:47;20.00;53.90
32139;DHT22;18644;48.700;9.210;2023-09-18T00:34:14;20.00;54.00
32139;DHT22;18644;48.700;9.210;2023-09-18T00:36:41;20.00;54.10
32139;DHT22;18644;48.700;9.210;2023-09-18T00:39:08;20.00;54.10
32139;DHT22;18644;48.700;9.210;2023-09-18T00:41:35;20.00;54.20
32139;DHT22;18644;48.700;9.210;2023-09-18T00:44:02;20.00;54.20
32139;DHT22;18644;48.700;9.210;2023-09-18T00:46:31;20.00;54.30
32139;DHT22;18644;48.700;9.210;2023-09-18T00:48:58;20.00;54.40
32139;DHT22;18644;48.700;9.210;2023-09-18T00:51:25;20.00;54.50
32139;DHT22;18644;48.700;9.210;2023-09-18T00:53:52;20.00;54.60
32139;DHT22;18644;48.700;9.210;2023-09-18T00:56:20;20.00;54.60
32139;DHT22;18644;48.700;9.210;2023-09-18T00:58:46;20.00;54.70
32139;DHT22;18644;48.700;9.210;2023-09-18T01:01:14;20.00;54.80
32139;DHT22;18644;48.700;9.210;2023-09-18T01:03:45;20.10;54.90
32139;DHT22;18644;48.700;9.210;2023-09-18T01:06:11;20.10;55.00
32139;DHT22;18644;48.700;9.210;2023-09-18T01:08:39;20.10;55.10
32139;DHT22;18644;48.700;9.210;2023-09-18T01:11:06;20.20;55.30
32139;DHT22;18644;48.700;9.210;2023-09-18T01:13:37;20.20;55.30
32139;DHT22;18644;48.700;9.210;2023-09-18T01:16:11;20.20;55.30
32139;DHT22;18644;48.700;9.210;2023-09-18T01:18:49;20.20;55.40
32139;DHT22;18644;48.700;9.210;2023-09-18T01:21:18;20.30;55.50
32139;DHT22;18644;48.700;9.210;2023-09-18T01:23:46;20.30;55.50
32139;DHT22;18644;48.700;9.210;2023-09-18T01:26:14;20.30;55.60
32139;DHT22;18644;48.700;9.210;2023-09-18T01:28:41;20.40;55.60
32139;DHT22;18644;48.700;9.210;2023-09-18T01:31:07;20.40;55.80
32139;DHT22;18644;48.700;9.210;2023-09-18T01:33:34;20.50;55.70
32139;DHT22;18644;48.700;9.210;2023-09-18T01:36:05;20.50;55.80
32139;DHT22;18644;48.700;9.210;2023-09-18T01:38:33;20.60;55.90
32139;DHT22;18644;48.700;9.210;2023-09-18T01:41:02;20.60;56.00
32139;DHT22;18644;48.700;9.210;2023-09-18T01:43:29;20.70;56.10
32139;DHT22;18644;48.700;9.210;2023-09-18T01:45:56;20.70;56.10
32139;DHT22;18644;48.700;9.210;2023-09-18T01:48:22;20.80;55.90
32139;DHT22;18644;48.700;9.210;2023-09-18T01:50:49;20.80;55.80
32139;DHT22;18644;48.700;9.210;2023-09-18T01:53:16;21.00;56.10
32139;DHT22;18644;48.700;9.210;2023-09-18T01:55:43;21.10;56.20
32139;DHT22;18644;48.700;9.210;2023-09-18T01:58:11;21.20;56.20
32139;DHT22;18644;48.700;9.210;2023-09-18T02:00:39;21.40;56.10
32139;DHT22;18644;48.700;9.210;2023-09-18T02:03:06;21.60;56.10
32139;DHT22;18644;48.700;9.210;2023-09-18T02:05:33;21.70;56.20
32139;DHT22;18644;48.700;9.210;2023-09-18T02:08:00;21.80;56.20
32139;DHT22;18644;48.700;9.210;2023-09-18T02:10:28;22.00;56.40
32139;DHT22;18644;48.700;9.210;2023-09-18T02:12:54;22.10;56.30
32139;DHT22;18644;48.700;9.210;2023-09-18T02:15:23;22.20;56.10
32139;DHT22;18644;48.700;9.210;2023-09-18T02:17:49;22.30;56.20
32139;DHT22;18644;48.700;9.210;2023-09-18T02:20:16;22.40;56.20
32139;DHT22;18644;48.700;9.210;2023-09-18T02:22:43;22.40;56.20
32139;DHT22;18644;48.700;9.210;2023-09-18T02:25:12;22.50;56.20
32139;DHT22;18644;48.700;9.210;2023-09-18T02:27:39;22.50;55.90
32139;DHT22;18644;48.700;9.210;2023-09-18T02:30:06;22.50;55.90
32139;DHT22;18644;48.700;9.210;2023-09-18T02:32:36;22.50;55.90
32139;DHT22;18644;48.700;9.210;2023-09-18T02:35:03;22.60;55.90
32139;DHT22;18644;48.700;9.210;2023-09-18T02:37:32;22.60;56.00
32139;DHT22;18644;48.700;9.210;2023-09-18T02:39:59;22.60;56.10
32139;DHT22;18644;48.700;9.210;2023-09-18T02:42:26;22.50;55.90
32139;DHT22;18644;48.700;9.210;2023-09-18T02:44:52;22.50;55.80
32139;DHT22;18644;48.700;9.210;2023-09-18T02:47:19;22.50;55.80
32139;DHT22;18644;48.700;9.210;2023-09-18T02:49:47;22.50;55.90
32139;DHT22;18644;48.700;9.210;2023-09-18T02:52:14;22.50;55.90
32139;DHT22;18644;48.700;9.210;2023-09-18T02:54:41;22.50;55.90
32139;DHT22;18644;48.700;9.210;2023-09-18T02:57:07;22.50;55.80
32139;DHT22;18644;48.700;9.210;2023-09-18T02:59:34;22.50;55.70
32139;DHT22;18644;48.700;9.210;2023-09-18T03:02:01;22.50;55.70
32139;DHT22;18644;48.700;9.210;2023-09-18T03:04:28;22.50;55.70
32139;DHT22;18644;48.700;9.210;2023-09-18T03:06:57;22.50;55.70
32139;DHT22;18644;48.700;9.210;2023-09-18T03:09:23;22.50;55.50
32139;DHT22;18644;48.700;9.210;2023-09-18T03:11:50;22.50;55.40
32139;DHT22;18644;48.700;9.210;2023-09-18T03:14:17;22.50;55.40
32139;DHT22;18644;48.700;9.210;2023-09-18T03:16:44;22.50;55.50
32139;DHT22;18644;48.700;9.210;2023-09-18T03:19:10;22.50;55.40
32139;DHT22;18644;48.700;9.210;2023-09-18T03:21:37;22.50;55.40
32139;DHT22;18644;48.700;9.210;2023-09-18T03:24:06;22.50;55.40
32139;DHT22;18644;48.700;9.210;2023-09-18T03:26:33;22.40;55.30
32139;DHT22;18644;48.700;9.210;2023-09-18T03:29:00;22.40;55.30
32139;DHT22;18644;48.700;9.210;2023-09-18T03:31:26;22.40;55.30
32139;DHT22;18644;48.700;9.210;2023-09-18T03:33:54;22.30;55.30
32139;DHT22;18644;48.700;9.210;2023-09-18T03:36:21;22.30;55.30
32139;DHT22;18644;48.700;9.210;2023-09-18T03:38:48;22.20;55.20
32139;DHT22;18644;48.700;9.210;2023-09-18T03:41:16;22.20;55.30
32139;DHT22;18644;48.700;9.210;2023-09-18T03:43:43;22.20;55.40
32139;DHT22;18644;48.700;9.210;2023-09-18T03:46:10;22.20;55.50
32139;DHT22;18644;48.700;9.210;2023-09-18T03:48:36;22.10;55.80
32139;DHT22;18644;48.700;9.210;2023-09-18T03:51:03;22.10;55.90
32139;DHT22;18644;48.700;9.210;2023-09-18T03:53:31;22.10;55.90
32139;DHT22;18644;48.700;9.210;2023-09-18T03:55:58;22.00;55.70
32139;DHT22;18644;48.700;9.210;2023-09-18T03:58:26;22.00;55.80
32139;DHT22;18644;48.700;9.210;2023-09-18T04:00:56;22.00;55.80
32139;DHT22;18644;48.700;9.210;2023-09-18T04:03:23;22.00;55.80
32139;DHT22;18644;48.700;9.210;2023-09-18T04:05:49;22.00;55.80
32139;DHT22;18644;48.700;9.210;2023-09-18T04:08:16;22.10;55.90
32139;DHT22;18644;48.700;9.210;2023-09-18T04:10:43;22.10;56.00
32139;DHT22;18644;48.700;9.210;2023-09-18T04:13:10;22.00;56.10
32139;DHT22;18644;48.700;9.210;2023-09-18T04:15:38;22.10;56.20
32139;DHT22;18644;48.700;9.210;2023-09-18T04:18:05;22.10;56.20
32139;DHT22;18644;48.700;9.210;2023-09-18T04:20:32;22.20;56.20
32139;DHT22;18644;48.700;9.210;2023-09-18T04:23:16;22.20;56.20
32139;DHT22;18644;48.700;9.210;2023-09-18T04:25:44;22.20;56.20
32139;DHT22;18644;48.700;9.210;2023-09-18T04:28:11;22.20;56.20
32139;DHT22;18644;48.700;9.210;2023-09-18T04:30:40;22.20;56.20
32139;DHT22;18644;48.700;9.210;2023-09-18T04:33:11;22.20;56.20
32139;DHT22;18644;48.700;9.210;2023-09-18T04:35:38;22.20;56.10
32139;DHT22;18644;48.700;9.210;2023-09-18T04:38:05;22.20;56.20
32139;DHT22;18644;48.700;9.210;2023-09-18T04:40:34;22.20;56.20
32139;DHT22;18644;48.700;9.210;2023-09-18T04:43:00;22.20;56.20
32139;DHT22;18644;48.700;9.210;2023-09-18T04:45:29;22.20;56.20
32139;DHT22;18644;48.700;9.210;2023-09-18T04:47:57;22.10;56.20
32139;DHT22;18644;48.700;9.210;2023-09-18T04:50:23;22.10;56.10
32139;DHT22;18644;48.700;9.210;2023-09-18T04:52:51;22.10;56.10
32139;DHT22;18644;48.700;9.210;2023-09-18T04:55:19;22.10;56.20
32139;DHT22;18644;48.700;9.210;2023-09-18T04:57:46;22.10;56.20
32139;DHT22;18644;48.700;9.210;2023-09-18T05:00:14;22.00;56.20
32139;DHT22;18644;48.700;9.210;2023-09-18T05:02:41;22.00;56.20
32139;DHT22;18644;48.700;9.210;2023-09-18T05:05:10;22.00;56.30
32139;DHT22;18644;48.700;9.210;2023-09-18T05:07:38;22.00;56.30
32139;DHT22;18644;48.700;9.210;2023-09-18T05:10:05;22.00;56.40
32139;DHT22;18644;48.700;9.210;2023-09-18T05:12:33;21.90;56.40
32139;DHT22;18644;48.700;9.210;2023-09-18T05:14:59;21.90;56.50
32139;DHT22;18644;48.700;9.210;2023-09-18T05:17:39;21.90;56.50
32139;DHT22;18644;48.700;9.210;2023-09-18T05:20:08;21.90;56.60
32139;DHT22;18644;48.700;9.210;2023-09-18T05:22:38;21.90;56.60
32139;DHT22;18644;48.700;9.210;2023-09-18T05:25:06;21.90;56.60
32139;DHT22;18644;48.700;9.210;2023-09-18T05:27:33;21.90;56.60
32139;DHT22;18644;48.700;9.210;2023-09-18T05:29:59;21.80;56.50
32139;DHT22;18644;48.700;9.210;2023-09-18T05:32:26;21.80;56.50
32139;DHT22;18644;48.700;9.210;2023-09-18T05:34:53;21.80;56.60
32139;DHT22;18644;48.700;9.210;2023-09-18T05:37:21;21.80;56.70
32139;DHT22;18644;48.700;9.210;2023-09-18T05:39:48;21.80;56.70
32139;DHT22;18644;48.700;9.210;2023-09-18T05:42:15;21.80;56.70
32139;DHT22;18644;48.700;9.210;2023-09-18T05:44:42;21.80;56.70
32139;DHT22;18644;48.700;9.210;2023-09-18T05:47:09;21.80;56.70
32139;DHT22;18644;48.700;9.210;2023-09-18T05:49:36;21.80;56.60
32139;DHT22;18644;48.700;9.210;2023-09-18T05:52:03;21.80;56.70
32139;DHT22;18644;48.700;9.210;2023-09-18T05:54:31;21.90;56.80
32139;DHT22;18644;48.700;9.210;2023-09-18T05:56:58;21.90;57.10
32139;DHT22;18644;48.700;9.210;2023-09-18T05:59:25;21.90;57.20
32139;DHT22;18644;48.700;9.210;2023-09-18T06:01:51;21.90;57.40
32139;DHT22;18644;48.700;9.210;2023-09-18T06:04:19;22.00;57.50
32139;DHT22;18644;48.700;9.210;2023-09-18T06:06:46;22.00;57.40
32139;DHT22;18644;48.700;9.210;2023-09-18T06:09:13;22.10;57.50
32139;DHT22;18644;48.700;9.210;2023-09-18T06:11:41;22.10;57.50
32139;DHT22;18644;48.700;9.210;2023-09-18T06:14:09;22.10;57.40
32139;DHT22;18644;48.700;9.210;2023-09-18T06:16:36;22.10;57.40
32139;DHT22;18644;48.700;9.210;2023-09-18T06:19:03;22.10;57.40
32139;DHT22;18644;48.700;9.210;2023-09-18T06:21:30;22.20;57.40
32139;DHT22;18644;48.700;9.210;2023-09-18T06:23:56;22.20;57.50
32139;DHT22;18644;48.700;9.210;2023-09-18T06:26:23;22.20;57.40
32139;DHT22;18644;48.700;9.210;2023-09-18T06:28:50;22.30;57.50
32139;DHT22;18644;48.700;9.210;2023-09-18T06:31:17;22.30;57.50
32139;DHT22;18644;48.700;9.210;2023-09-18T06:33:45;22.30;57.40
32139;DHT22;18644;48.700;9.210;2023-09-18T06:36:12;22.40;57.40
32139;DHT22;18644;48.700;9.210;2023-09-18T06:38:39;22.40;57.40
32139;DHT22;18644;48.700;9.210;2023-09-18T06:41:06;22.40;57.50
32139;DHT22;18644;48.700;9.210;2023-09-18T06:43:33;22.40;57.30
32139;DHT22;18644;48.700;9.210;2023-09-18T06:46:01;22.50;57.30
32139;DHT22;18644;48.700;9.210;2023-09-18T06:48:28;22.40;57.20
32139;DHT22;18644;48.700;9.210;2023-09-18T06:50:57;22.50;57.20
32139;DHT22;18644;48.700;9.210;2023-09-18T06:53:25;22.50;57.40
32139;DHT22;18644;48.700;9.210;2023-09-18T06:55:52;22.50;57.40
32139;DHT22;18644;48.700;9.210;2023-09-18T06:58:19;22.50;57.20
32139;DHT22;18644;48.700;9.210;2023-09-18T07:00:45;22.50;57.10
32139;DHT22;18644;48.700;9.210;2023-09-18T07:03:14;22.60;57.40
32139;DHT22;18644;48.700;9.210;2023-09-18T07:05:41;22.60;57.40
32139;DHT22;18644;48.700;9.210;2023-09-18T07:08:08;22.60;57.40
32139;DHT22;18644;48.700;9.210;2023-09-18T07:10:37;22.60;57.30
32139;DHT22;18644;48.700;9.210;2023-09-18T07:13:04;22.60;57.60
32139;DHT22;18644;48.700;9.210;2023-09-18T07:15:30;22.70;57.80
32139;DHT22;18644;48.700;9.210;2023-09-18T07:17:57;22.60;57.60
32139;DHT22;18644;48.700;9.210;2023-09-18T07:20:25;22.70;57.70
32139;DHT22;18644;48.700;9.210;2023-09-18T07:22:52;22.70;57.60
32139;DHT22;18644;48.700;9.210;2023-09-18T07:25:19;22.80;57.70
32139;DHT22;18644;48.700;9.210;2023-09-18T07:27:45;22.80;57.80
32139;DHT22;18644;48.700;9.210;2023-09-18T07:30:13;22.80;57.80
32139;DHT22;18644;48.700;9.210;2023-09-18T07:32:41;22.90;57.70
32139;DHT22;18644;48.700;9.210;2023-09-18T07:35:08;22.90;57.60
32139;DHT22;18644;48.700;9.210;2023-09-18T07:37:37;22.90;57.40
32139;DHT22;18644;48.700;9.210;2023-09-18T07:40:05;22.90;57.40
32139;DHT22;18644;48.700;9.210;2023-09-18T07:42:32;22.90;57.40
32139;DHT22;18644;48.700;9.210;2023-09-18T07:44:59;22.90;57.40
32139;DHT22;18644;48.700;9.210;2023-09-18T07:47:26;23.00;57.40
32139;DHT22;18644;48.700;9.210;2023-09-18T07:49:53;23.00;57.40
32139;DHT22;18644;48.700;9.210;2023-09-18T07:52:20;23.10;57.40
32139;DHT22;18644;48.700;9.210;2023-09-18T07:54:48;23.10;57.50
32139;DHT22;18644;48.700;9.210;2023-09-18T07:57:15;23.10;57.50
32139;DHT22;18644;48.700;9.210;2023-09-18T07:59:44;23.10;57.50
32139;DHT22;18644;48.700;9.210;2023-09-18T08:02:11;23.20;57.50
32139;DHT22;18644;48.700;9.210;2023-09-18T08:04:38;23.20;57.60
32139;DHT22;18644;48.700;9.210;2023-09-18T08:07:05;23.30;57.50
32139;DHT22;18644;48.700;9.210;2023-09-18T08:09:32;23.40;57.50
32139;DHT22;18644;48.700;9.210;2023-09-18T08:12:03;23.40;57.40
32139;DHT22;18644;48.700;9.210;2023-09-18T08:14:30;23.40;57.30
32139;DHT22;18644;48.700;9.210;2023-09-18T08:16:57;23.50;57.30
32139;DHT22;18644;48.700;9.210;2023-09-18T08:19:24;23.50;57.20
32139;DHT22;18644;48.700;9.210;2023-09-18T08:21:52;23.50;57.00
32139;DHT22;18644;48.700;9.210;2023-09-18T08:24:19;23.60;57.10
32139;DHT22;18644;48.700;9.210;2023-09-18T08:26:46;23.50;56.80
32139;DHT22;18644;48.700;9.210;2023-09-18T08:29:14;23.60;56.80
32139;DHT22;18644;48.700;9.210;2023-09-18T08:31:41;23.60;56.80
32139;DHT22;18644;48.700;9.210;2023-09-18T08:34:08;23.50;56.70
32139;DHT22;18644;48.700;9.210;2023-09-18T08:36:35;23.50;56.80
32139;DHT22;18644;48.700;9.210;2023-09-18T08:39:02;23.50;56.80
32139;DHT22;18644;48.700;9.210;2023-09-18T08:41:31;23.40;56.60
32139;DHT22;18644;48.700;9.210;2023-09-18T08:44:00;23.40;56.60
32139;DHT22;18644;48.700;9.210;2023-09-18T08:46:30;23.40;56.60
32139;DHT22;18644;48.700;9.210;2023-09-18T08:48:59;23.30;56.50
32139;DHT22;18644;48.700;9.210;2023-09-18T08:51:26;23.30;56.60
32139;DHT22;18644;48.700;9.210;2023-09-18T08:53:54;23.20;56.60
32139;DHT22;18644;48.700;9.210;2023-09-18T08:56:20;23.10;56.60
32139;DHT22;18644;48.700;9.210;2023-09-18T08:58:48;23.10;56.70
32139;DHT22;18644;48.700;9.210;2023-09-18T09:01:15;23.00;56.60
32139;DHT22;18644;48.700;9.210;2023-09-18T09:03:43;22.90;56.70
32139;DHT22;18644;48.700;9.210;2023-09-18T09:06:11;22.80;56.90
32139;DHT22;18644;48.700;9.210;2023-09-18T09:08:38;22.80;57.00
32139;DHT22;18644;48.700;9.210;2023-09-18T09:11:05;22.70;57.20
32139;DHT22;18644;48.700;9.210;2023-09-18T09:13:32;22.70;57.20
32139;DHT22;18644;48.700;9.210;2023-09-18T09:15:59;22.60;57.20
32139;DHT22;18644;48.700;9.210;2023-09-18T09:18:26;22.60;57.40
32139;DHT22;18644;48.700;9.210;2023-09-18T09:20:56;22.60;57.50
32139;DHT22;18644;48.700;9.210;2023-09-18T09:23:25;22.60;57.70
32139;DHT22;18644;48.700;9.210;2023-09-18T09:25:52;22.60;57.90
32139;DHT22;18644;48.700;9.210;2023-09-18T09:28:28;22.60;58.00
32139;DHT22;18644;48.700;9.210;2023-09-18T09:30:59;22.60;58.10
32139;DHT22;18644;48.700;9.210;2023-09-18T09:33:27;22.70;58.20
32139;DHT22;18644;48.700;9.210;2023-09-18T09:35:56;22.70;58.30
32139;DHT22;18644;48.700;9.210;2023-09-18T09:38:27;22.70;58.30
32139;DHT22;18644;48.700;9.210;2023-09-18T09:40:57;22.70;58.20
32139;DHT22;18644;48.700;9.210;2023-09-18T09:43:24;22.70;58.30
32139;DHT22;18644;48.700;9.210;2023-09-18T09:45:56;22.80;58.40
32139;DHT22;18644;48.700;9.210;2023-09-18T09:48:24;22.80;58.50
32139;DHT22;18644;48.700;9.210;2023-09-18T09:50:52;22.80;58.60
32139;DHT22;18644;48.700;9.210;2023-09-18T09:53:24;22.80;58.60
32139;DHT22;18644;48.700;9.210;2023-09-18T09:56:08;22.90;58.60
32139;DHT22;18644;48.700;9.210;2023-09-18T09:58:34;22.90;58.50
32139;DHT22;18644;48.700;9.210;2023-09-18T10:01:02;22.90;58.70
32139;DHT22;18644;48.700;9.210;2023-09-18T10:03:34;23.00;58.90
32139;DHT22;18644;48.700;9.210;2023-09-18T10:06:02;23.10;58.90
32139;DHT22;18644;48.700;9.210;2023-09-18T10:08:31;23.10;58.90
32139;DHT22;18644;48.700;9.210;2023-09-18T10:11:01;23.20;59.10
32139;DHT22;18644;48.700;9.210;2023-09-18T10:13:34;23.30;59.00
32139;DHT22;18644;48.700;9.210;2023-09-18T10:16:04;23.30;58.80
32139;DHT22;18644;48.700;9.210;2023-09-18T10:18:34;23.40;58.90
32139;DHT22;18644;48.700;9.210;2023-09-18T10:21:08;23.40;58.80
32139;DHT22;18644;48.700;9.210;2023-09-18T10:23:45;23.40;58.60
32139;DHT22;18644;48.700;9.210;2023-09-18T10:26:22;23.40;58.60
32139;DHT22;18644;48.700;9.210;2023-09-18T10:28:51;23.50;58.50
32139;DHT22;18644;48.700;9.210;2023-09-18T10:31:21;23.50;58.80
32139;DHT22;18644;48.700;9.210;2023-09-18T10:33:48;23.50;58.20
32139;DHT22;18644;48.700;9.210;2023-09-18T10:36:15;23.40;58.00
32139;DHT22;18644;48.700;9.210;2023-09-18T10:38:44;23.40;57.90
32139;DHT22;18644;48.700;9.210;2023-09-18T10:41:15;23.40;58.00
32139;DHT22;18644;48.700;9.210;2023-09-18T10:43:44;23.40;58.00
32139;DHT22;18644;48.700;9.210;2023-09-18T10:46:11;23.40;58.10
32139;DHT22;18644;48.700;9.210;2023-09-18T10:48:39;23.30;58.10
32139;DHT22;18644;48.700;9.210;2023-09-18T10:51:07;23.30;58.10
32139;DHT22;18644;48.700;9.210;2023-09-18T10:53:34;23.30;58.10
32139;DHT22;18644;48.700;9.210;2023-09-18T10:56:02;23.30;58.10
32139;DHT22;18644;48.700;9.210;2023-09-18T10:58:30;23.30;58.00
32139;DHT22;18644;48.700;9.210;2023-09-18T11:01:01;23.30;57.90
32139;DHT22;18644;48.700;9.210;2023-09-18T11:03:28;23.20;57.80
32139;DHT22;18644;48.700;9.210;2023-09-18T11:06:02;23.20;58.40
32139;DHT22;18644;48.700;9.210;2023-09-18T11:08:33;23.10;57.80
32139;DHT22;18644;48.700;9.210;2023-09-18T11:11:03;23.10;57.60
32139;DHT22;18644;48.700;9.210;2023-09-18T11:13:39;23.10;57.70
32139;DHT22;18644;48.700;9.210;2023-09-18T11:16:13;23.00;57.70
32139;DHT22;18644;48.700;9.210;2023-09-18T11:18:42;22.90;57.80
32139;DHT22;18644;48.700;9.210;2023-09-18T11:21:09;22.90;58.10
32139;DHT22;18644;48.700;9.210;2023-09-18T11:23:37;22.80;58.10
32139;DHT22;18644;48.700;9.210;2023-09-18T11:26:09;22.80;58.20
32139;DHT22;18644;48.700;9.210;2023-09-18T11:28:37;22.80;58.40
32139;DHT22;18644;48.700;9.210;2023-09-18T11:31:04;22.80;58.60
32139;DHT22;18644;48.700;9.210;2023-09-18T11:33:33;22.80;58.70
32139;DHT22;18644;48.700;9.210;2023-09-18T11:36:05;22.80;58.80
32139;DHT22;18644;48.700;9.210;2023-09-18T11:38:33;22.80;58.70
32139;DHT22;18644;48.700;9.210;2023-09-18T11:41:05;22.80;58.80
32139;DHT22;18644;48.700;9.210;2023-09-18T11:43:48;22.80;58.90
32139;DHT22;18644;48.700;9.210;2023-09-18T11:46:17;22.90;59.10
32139;DHT22;18644;48.700;9.210;2023-09-18T11:48:45;22.90;59.20
32139;DHT22;18644;48.700;9.210;2023-09-18T11:51:20;22.90;59.40
32139;DHT22;18644;48.700;9.210;2023-09-18T11:53:47;23.00;59.50
32139;DHT22;18644;48.700;9.210;2023-09-18T11:56:16;23.10;59.50
32139;DHT22;18644;48.700;9.210;2023-09-18T11:58:46;23.10;59.60
32139;DHT22;18644;48.700;9.210;2023-09-18T12:01:13;23.20;59.40
32139;DHT22;18644;48.700;9.210;2023-09-18T12:03:40;23.20;59.40
32139;DHT22;18644;48.700;9.210;2023-09-18T12:06:07;23.30;59.20
32139;DHT22;18644;48.700;9.210;2023-09-18T12:08:35;23.30;59.20
32139;DHT22;18644;48.700;9.210;2023-09-18T12:11:04;23.30;59.00
32139;DHT22;18644;48.700;9.210;2023-09-18T12:13:31;23.40;58.90
32139;DHT22;18644;48.700;9.210;2023-09-18T12:16:00;23.40;59.00
32139;DHT22;18644;48.700;9.210;2023-09-18T12:18:29;23.40;59.00
32139;DHT22;18644;48.700;9.210;2023-09-18T12:20:57;23.50;59.00
32139;DHT22;18644;48.700;9.210;2023-09-18T12:23:24;23.50;59.00
32139;DHT22;18644;48.700;9.210;2023-09-18T12:25:56;23.50;59.00
32139;DHT22;18644;48.700;9.210;2023-09-18T12:28:25;23.50;58.90
32139;DHT22;18644;48.700;9.210;2023-09-18T12:30:52;23.60;59.00
32139;DHT22;18644;48.700;9.210;2023-09-18T12:33:23;23.60;59.00
32139;DHT22;18644;48.700;9.210;2023-09-18T12:35:50;23.60;59.10
32139;DHT22;18644;48.700;9.210;2023-09-18T12:38:18;23.60;59.10
32139;DHT22;18644;48.700;9.210;2023-09-18T12:40:49;23.70;59.30
32139;DHT22;18644;48.700;9.210;2023-09-18T12:43:16;23.80;59.50
32139;DHT22;18644;48.700;9.210;2023-09-18T12:45:43;23.90;59.60
32139;DHT22;18644;48.700;9.210;2023-09-18T12:48:11;24.00;59.80
32139;DHT22;18644;48.700;9.210;2023-09-18T12:50:39;24.10;59.90
32139;DHT22;18644;48.700;9.210;2023-09-18T12:53:07;24.20;59.90
32139;DHT22;18644;48.700;9.210;2023-09-18T12:55:37;24.40;59.90
32139;DHT22;18644;48.700;9.210;2023-09-18T12:58:05;24.50;60.00
32139;DHT22;18644;48.700;9.210;2023-09-18T13:00:33;24.60;59.70
32139;DHT22;18644;48.700;9.210;2023-09-18T13:03:00;24.80;59.60
32139;DHT22;18644;48.700;9.210;2023-09-18T13:05:29;24.90;59.40
32139;DHT22;18644;48.700;9.210;2023-09-18T13:08:02;25.00;59.30
32139;DHT22;18644;48.700;9.210;2023-09-18T13:10:40;25.10;59.20
32139;DHT22;18644;48.700;9.210;2023-09-18T13:13:07;25.20;59.00
32139;DHT22;18644;48.700;9.210;2023-09-18T13:15:42;25.30;58.90
32139;DHT22;18644;48.700;9.210;2023-09-18T13:18:11;25.40;58.70
32139;DHT22;18644;48.700;9.210;2023-09-18T13:20:38;25.50;58.60
32139;DHT22;18644;48.700;9.210;2023-09-18T13:23:07;25.60;58.60
32139;DHT22;18644;48.700;9.210;2023-09-18T13:25:35;25.60;58.50
32139;DHT22;18644;48.700;9.210;2023-09-18T13:28:04;25.70;58.40
32139;DHT22;18644;48.700;9.210;2023-09-18T13:30:33;25.70;58.30
32139;DHT22;18644;48.700;9.210;2023-09-18T13:33:04;25.80;58.20
32139;DHT22;18644;48.700;9.210;2023-09-18T13:35:32;25.90;58.20
32139;DHT22;18644;48.700;9.210;2023-09-18T13:37:59;26.00;58.90
32139;DHT22;18644;48.700;9.210;2023-09-18T13:40:27;26.10;58.40
32139;DHT22;18644;48.700;9.210;2023-09-18T13:42:54;26.20;58.30
32139;DHT22;18644;48.700;9.210;2023-09-18T13:45:21;26.30;58.10
32139;DHT22;18644;48.700;9.210;2023-09-18T13:47:47;26.40;57.80
32139;DHT22;18644;48.700;9.210;2023-09-18T13:50:15;26.40;57.60
32139;DHT22;18644;48.700;9.210;2023-09-18T13:52:42;26.50;57.40
32139;DHT22;18644;48.700;9.210;2023-09-18T13:55:09;26.50;57.20
32139;DHT22;18644;48.700;9.210;2023-09-18T13:57:37;26.50;57.00
32139;DHT22;18644;48.700;9.210;2023-09-18T14:00:05;26.50;56.80
32139;DHT22;18644;48.700;9.210;2023-09-18T14:02:36;26.50;56.60
32139;DHT22;18644;48.700;9.210;2023-09-18T14:05:03;26.50;56.50
32139;DHT22;18644;48.700;9.210;2023-09-18T14:07:30;26.40;56.30
32139;DHT22;18644;48.700;9.210;2023-09-18T14:09:57;26.40;56.20
32139;DHT22;18644;48.700;9.210;2023-09-18T14:12:24;26.40;56.20
32139;DHT22;18644;48.700;9.210;2023-09-18T14:14:52;26.30;55.90
32139;DHT22;18644;48.700;9.210;2023-09-18T14:17:19;26.30;55.90
32139;DHT22;18644;48.700;9.210;2023-09-18T14:19:47;26.30;55.90
32139;DHT22;18644;48.700;9.210;2023-09-18T14:22:14;26.30;55.90
32139;DHT22;18644;48.700;9.210;2023-09-18T14:24:40;26.30;56.00
32139;DHT22;18644;48.700;9.210;2023-09-18T14:27:07;26.20;55.90
32139;DHT22;18644;48.700;9.210;2023-09-18T14:29:34;26.30;55.90
32139;DHT22;18644;48.700;9.210;2023-09-18T14:32:02;26.20;55.70
32139;DHT22;18644;48.700;9.210;2023-09-18T14:34:30;26.20;55.80
32139;DHT22;18644;48.700;9.210;2023-09-18T14:37:00;26.20;55.70
32139;DHT22;18644;48.700;9.210;2023-09-18T14:39:29;26.20;55.60
32139;DHT22;18644;48.700;9.210;2023-09-18T14:41:56;26.20;55.70
32139;DHT22;18644;48.700;9.210;2023-09-18T14:44:23;26.20;56.30
32139;DHT22;18644;48.700;9.210;2023-09-18T14:46:50;26.20;55.60
32139;DHT22;18644;48.700;9.210;2023-09-18T14:49:19;26.30;55.80
32139;DHT22;18644;48.700;9.210;2023-09-18T14:51:46;26.30;55.80
32139;DHT22;18644;48.700;9.210;2023-09-18T14:54:14;26.30;55.70
32139;DHT22;18644;48.700;9.210;2023-09-18T14:56:41;26.40;55.70
32139;DHT22;18644;48.700;9.210;2023-09-18T14:59:10;26.40;55.80
32139;DHT22;18644;48.700;9.210;2023-09-18T15:01:37;26.50;55.80
32139;DHT22;18644;48.700;9.210;2023-09-18T15:04:04;26.50;55.70
32139;DHT22;18644;48.700;9.210;2023-09-18T15:06:32;26.60;55.60
32139;DHT22;18644;48.700;9.210;2023-09-18T15:09:18;26.60;55.50
32139;DHT22;18644;48.700;9.210;2023-09-18T15:11:45;26.70;55.40
32139;DHT22;18644;48.700;9.210;2023-09-18T15:14:12;26.70;55.20
32139;DHT22;18644;48.700;9.210;2023-09-18T15:16:38;26.80;55.00
32139;DHT22;18644;48.700;9.210;2023-09-18T15:19:05;26.80;54.80
32139;DHT22;18644;48.700;9.210;2023-09-18T15:21:35;26.70;54.50
32139;DHT22;18644;48.700;9.210;2023-09-18T15:24:02;26.70;54.40
32139;DHT22;18644;48.700;9.210;2023-09-18T15:26:29;26.60;54.30
32139;DHT22;18644;48.700;9.210;2023-09-18T15:28:56;26.60;54.20
32139;DHT22;18644;48.700;9.210;2023-09-18T15:31:23;26.50;54.20
32139;DHT22;18644;48.700;9.210;2023-09-18T15:33:50;26.50;54.20
32139;DHT22;18644;48.700;9.210;2023-09-18T15:36:19;26.40;54.30